Time;durP1;ratioP1;P1;durP2;ratioP2;P2;SDS_P1;SDS_P2;PMS_P1;PMS_P2;Temp;Humidity;BMP_temperature;BMP_pressure;BME280_temperature;BME280_humidity;BME280_pressure;Samples;Min_cycle;Max_cycle;Signal;HPM_P1;HPM_P2
2021/07/07 00:00:55;;;;;;;7.68;4.90;;;;;;;;;;5076404;28;20021;-69
2021/07/07 00:03:21;;;;;;;5.60;3.97;;;;;;;;;;5076188;28;20133;-70
2021/07/07 00:05:47;;;;;;;4.00;3.47;;;;;;;;;;5076237;28;20020;-70
2021/07/07 00:08:13;;;;;;;4.38;3.78;;;;;;;;;;5076282;28;20028;-70
2021/07/07 00:10:39;;;;;;;4.68;3.83;;;;;;;;;;5075985;28;20104;-70
2021/07/07 00:13:05;;;;;;;7.07;4.13;;;;;;;;;;5076092;28;20370;-70
2021/07/07 00:15:32;;;;;;;5.80;3.88;;;;;;;;;;5076272;28;20447;-70
2021/07/07 00:18:02;;;;;;;10.38;4.63;;;;;;;;;;5076771;28;20056;-70
2021/07/07 00:20:34;;;;;;;7.72;4.55;;;;;;;;;;5076452;28;20037;-70
2021/07/07 00:23:00;;;;;;;;;;;;;;;;;;5076732;28;20035;-70
2021/07/07 00:25:26;;;;;;;4.90;4.45;;;;;;;;;;5075927;28;20002;-70
2021/07/07 00:27:52;;;;;;;4.13;3.72;;;;;;;;;;5075799;28;20025;-70
2021/07/07 00:30:18;;;;;;;5.30;4.30;;;;;;;;;;5075982;28;20028;-70
2021/07/07 00:32:44;;;;;;;5.25;4.40;;;;;;;;;;5076154;28;20450;-70
2021/07/07 00:35:10;;;;;;;5.43;4.80;;;;;;;;;;5075827;28;20056;-70
2021/07/07 00:37:36;;;;;;;5.85;4.00;;;;;;;;;;5075493;28;20047;-71
2021/07/07 00:40:03;;;;;;;4.60;4.20;;;;;;;;;;5075502;28;20040;-70
2021/07/07 00:42:29;;;;;;;6.38;4.35;;;;;;;;;;5075578;28;20033;-71
2021/07/07 00:44:55;;;;;;;5.57;4.53;;;;;;;;;;5075620;28;20025;-71
2021/07/07 00:47:21;;;;;;;5.68;4.10;;;;;;;;;;5075154;28;20109;-71
2021/07/07 00:49:47;;;;;;;5.05;4.55;;;;;;;;;;5075402;28;20020;-71
2021/07/07 00:52:13;;;;;;;6.90;4.43;;;;;;;;;;5075302;28;20091;-71
2021/07/07 00:54:39;;;;;;;6.57;4.43;;;;;;;;;;5075555;28;20035;-71
2021/07/07 00:57:05;;;;;;;4.97;4.47;;;;;;;;;;5075716;28;20031;-71
2021/07/07 00:59:32;;;;;;;4.88;4.38;;;;;;;;;;5075118;28;20036;-71
2021/07/07 01:01:58;;;;;;;4.85;4.45;;;;;;;;;;5075223;28;20410;-71
2021/07/07 01:04:24;;;;;;;6.68;4.22;;;;;;;;;;5075005;28;20476;-71
2021/07/07 01:06:50;;;;;;;4.93;4.50;;;;;;;;;;5075018;28;20402;-71
2021/07/07 01:09:16;;;;;;;5.20;4.22;;;;;;;;;;5074604;28;20032;-72
2021/07/07 01:11:42;;;;;;;5.03;4.43;;;;;;;;;;5075732;28;20060;-71
2021/07/07 01:14:08;;;;;;;6.03;4.07;;;;;;;;;;5075687;28;20020;-71
2021/07/07 01:16:34;;;;;;;6.80;4.22;;;;;;;;;;5075318;28;20020;-71
2021/07/07 01:19:00;;;;;;;4.80;3.90;;;;;;;;;;5075166;28;20036;-71
2021/07/07 01:21:26;;;;;;;9.68;4.75;;;;;;;;;;5074697;28;20024;-70
2021/07/07 01:23:52;;;;;;;8.60;4.15;;;;;;;;;;5074649;28;20078;-71
2021/07/07 01:26:18;;;;;;;5.03;4.15;;;;;;;;;;5075359;28;20082;-71
2021/07/07 01:28:45;;;;;;;5.05;4.25;;;;;;;;;;5074662;28;20033;-71
2021/07/07 01:31:11;;;;;;;4.97;3.97;;;;;;;;;;5074807;28;20028;-72
2021/07/07 01:33:37;;;;;;;5.32;4.05;;;;;;;;;;5074696;28;20029;-72
2021/07/07 01:36:04;;;;;;;3.95;3.60;;;;;;;;;;5074703;28;20061;-72
2021/07/07 01:38:30;;;;;;;5.72;3.50;;;;;;;;;;5074537;28;20024;-72
2021/07/07 01:40:56;;;;;;;5.75;4.10;;;;;;;;;;5074971;28;20066;-72
2021/07/07 01:43:22;;;;;;;4.70;3.63;;;;;;;;;;5074478;28;20052;-72
2021/07/07 01:45:48;;;;;;;6.22;4.38;;;;;;;;;;5074660;28;20032;-72
2021/07/07 01:48:14;;;;;;;4.65;3.80;;;;;;;;;;5074484;28;20484;-71
2021/07/07 01:50:40;;;;;;;7.93;3.97;;;;;;;;;;5074515;28;20025;-72
2021/07/07 01:53:06;;;;;;;6.45;4.13;;;;;;;;;;5073823;28;20052;-72
2021/07/07 01:55:33;;;;;;;4.70;4.18;;;;;;;;;;5074329;28;20025;-72
2021/07/07 01:57:59;;;;;;;5.70;4.43;;;;;;;;;;5074464;28;20047;-72
2021/07/07 02:00:26;;;;;;;4.72;3.83;;;;;;;;;;5074172;28;20040;-72
2021/07/07 02:02:53;;;;;;;4.00;3.70;;;;;;;;;;5074677;28;20016;-71
2021/07/07 02:05:20;;;;;;;5.90;4.03;;;;;;;;;;5074075;28;20484;-72
2021/07/07 02:07:46;;;;;;;8.85;4.00;;;;;;;;;;5073802;28;20467;-72
2021/07/07 02:10:12;;;;;;;5.57;4.07;;;;;;;;;;5074235;28;20485;-72
2021/07/07 02:12:38;;;;;;;4.47;3.88;;;;;;;;;;5074457;28;20060;-72
2021/07/07 02:15:07;;;;;;;6.85;3.80;;;;;;;;;;5074327;28;20024;-72
2021/07/07 02:17:33;;;;;;;9.85;4.30;;;;;;;;;;5074115;28;20505;-72
2021/07/07 02:19:59;;;;;;;7.82;4.25;;;;;;;;;;5073945;28;20040;-72
2021/07/07 02:22:25;;;;;;;3.97;3.38;;;;;;;;;;5073929;28;20035;-71
2021/07/07 02:24:51;;;;;;;4.30;3.78;;;;;;;;;;5073889;28;20020;-72
2021/07/07 02:27:17;;;;;;;6.00;3.75;;;;;;;;;;5073627;28;20454;-72
2021/07/07 02:29:43;;;;;;;4.05;3.40;;;;;;;;;;5074009;28;20028;-72
2021/07/07 02:32:09;;;;;;;3.78;3.40;;;;;;;;;;5074422;28;20588;-72
2021/07/07 02:34:35;;;;;;;5.20;3.88;;;;;;;;;;5074039;28;20352;-71
2021/07/07 02:37:01;;;;;;;4.25;3.47;;;;;;;;;;5074055;28;20103;-72
2021/07/07 02:39:28;;;;;;;6.18;3.65;;;;;;;;;;5073811;28;20038;-71
2021/07/07 02:41:54;;;;;;;4.40;4.00;;;;;;;;;;5074326;28;20382;-72
2021/07/07 02:44:20;;;;;;;3.80;3.45;;;;;;;;;;5073868;28;20025;-72
2021/07/07 02:46:46;;;;;;;4.95;4.13;;;;;;;;;;5073678;28;20066;-72
2021/07/07 02:49:12;;;;;;;4.75;4.00;;;;;;;;;;5074027;28;20024;-72
2021/07/07 02:51:38;;;;;;;6.50;3.80;;;;;;;;;;5077346;28;20060;-72
2021/07/07 02:54:04;;;;;;;9.45;4.03;;;;;;;;;;5078117;28;20035;-72
2021/07/07 02:56:30;;;;;;;4.53;3.70;;;;;;;;;;5077783;28;20025;-71
2021/07/07 02:58:56;;;;;;;4.00;3.65;;;;;;;;;;5077759;28;20029;-71
2021/07/07 03:01:22;;;;;;;5.32;4.03;;;;;;;;;;5077507;28;20428;-72
2021/07/07 03:03:48;;;;;;;4.50;3.65;;;;;;;;;;5077806;28;20378;-72
2021/07/07 03:06:14;;;;;;;6.25;3.97;;;;;;;;;;5077301;28;20025;-72
2021/07/07 03:08:43;;;;;;;6.72;4.00;;;;;;;;;;5078178;28;20177;-72
2021/07/07 03:11:09;;;;;;;4.45;3.63;;;;;;;;;;5077131;28;20368;-72
2021/07/07 03:13:36;;;;;;;5.13;3.95;;;;;;;;;;5077229;28;20024;-72
2021/07/07 03:16:03;;;;;;;6.40;5.38;;;;;;;;;;5077363;28;20484;-72
2021/07/07 03:18:29;;;;;;;8.57;4.95;;;;;;;;;;5077383;28;20024;-71
2021/07/07 03:20:55;;;;;;;4.68;3.65;;;;;;;;;;5077356;28;20374;-72
2021/07/07 03:23:22;;;;;;;11.77;4.60;;;;;;;;;;5077220;28;20024;-72
2021/07/07 03:25:48;;;;;;;6.20;4.63;;;;;;;;;;5077282;28;20393;-72
2021/07/07 03:28:14;;;;;;;5.53;4.07;;;;;;;;;;5077386;28;20059;-72
2021/07/07 03:30:40;;;;;;;4.55;3.80;;;;;;;;;;5076820;28;20025;-72
2021/07/07 03:33:06;;;;;;;3.42;3.03;;;;;;;;;;5077314;28;20082;-72
2021/07/07 03:35:32;;;;;;;4.38;3.97;;;;;;;;;;5076825;28;20040;-72
2021/07/07 03:37:58;;;;;;;7.40;4.18;;;;;;;;;;5077080;28;20021;-72
2021/07/07 03:40:24;;;;;;;4.72;3.88;;;;;;;;;;5076856;28;20173;-72
2021/07/07 03:42:50;;;;;;;5.55;3.28;;;;;;;;;;5077042;28;20020;-71
2021/07/07 03:45:17;;;;;;;4.95;3.90;;;;;;;;;;5076470;28;20480;-72
2021/07/07 03:47:43;;;;;;;9.93;4.43;;;;;;;;;;5076929;28;20017;-71
2021/07/07 03:50:09;;;;;;;4.30;3.50;;;;;;;;;;5076335;28;20029;-71
2021/07/07 03:52:36;;;;;;;4.57;3.92;;;;;;;;;;5076864;28;20059;-72
2021/07/07 03:55:02;;;;;;;6.82;4.05;;;;;;;;;;5076599;28;20013;-72
2021/07/07 03:57:30;;;;;;;7.05;3.92;;;;;;;;;;5076412;28;20027;-72
2021/07/07 03:59:56;;;;;;;3.55;3.25;;;;;;;;;;5076913;28;20127;-72
2021/07/07 04:02:22;;;;;;;6.10;3.85;;;;;;;;;;5074882;28;20024;-71
2021/07/07 04:04:48;;;;;;;5.15;3.90;;;;;;;;;;5076230;28;20021;-72
2021/07/07 04:07:14;;;;;;;6.82;4.80;;;;;;;;;;5076183;28;20068;-71
2021/07/07 04:09:40;;;;;;;6.07;4.45;;;;;;;;;;5076528;28;20359;-73
2021/07/07 04:12:06;;;;;;;4.05;3.75;;;;;;;;;;5076347;28;20481;-72
2021/07/07 04:14:32;;;;;;;4.82;3.50;;;;;;;;;;5076131;28;20082;-72
2021/07/07 04:16:59;;;;;;;3.65;3.35;;;;;;;;;;5076285;28;20028;-72
2021/07/07 04:19:25;;;;;;;7.03;4.22;;;;;;;;;;5071251;28;20033;-72
2021/07/07 04:21:51;;;;;;;7.43;3.58;;;;;;;;;;5064266;28;20108;-75
2021/07/07 04:24:18;;;;;;;3.90;3.55;;;;;;;;;;5075937;28;20082;-72
2021/07/07 04:26:44;;;;;;;6.55;4.35;;;;;;;;;;5075982;28;20107;-71
2021/07/07 04:29:10;;;;;;;6.55;4.03;;;;;;;;;;5075754;28;20075;-72
2021/07/07 04:31:37;;;;;;;4.15;3.70;;;;;;;;;;5064033;28;20029;-73
2021/07/07 04:34:03;;;;;;;6.80;4.57;;;;;;;;;;5065311;28;20032;-72
2021/07/07 04:36:29;;;;;;;4.95;4.40;;;;;;;;;;5063556;28;20021;-72
2021/07/07 04:38:55;;;;;;;6.90;4.28;;;;;;;;;;5064611;28;20135;-72
2021/07/07 04:41:21;;;;;;;7.28;3.97;;;;;;;;;;5064554;28;20497;-72
2021/07/07 04:43:47;;;;;;;5.47;4.43;;;;;;;;;;5063178;28;20020;-72
2021/07/07 04:46:13;;;;;;;7.32;4.90;;;;;;;;;;5064843;28;20029;-72
2021/07/07 04:48:39;;;;;;;5.25;3.83;;;;;;;;;;5065330;28;20098;-72
2021/07/07 04:51:05;;;;;;;5.82;3.83;;;;;;;;;;5064987;28;20029;-71
2021/07/07 04:53:31;;;;;;;7.65;4.78;;;;;;;;;;5062025;28;20555;-71
2021/07/07 04:55:57;;;;;;;7.78;4.15;;;;;;;;;;5063739;28;20405;-71
2021/07/07 04:58:25;;;;;;;9.73;4.07;;;;;;;;;;5066324;28;20021;-72
2021/07/07 05:00:51;;;;;;;7.50;3.40;;;;;;;;;;5062281;28;20115;-71
2021/07/07 05:03:17;;;;;;;4.88;4.47;;;;;;;;;;5063476;28;20013;-71
2021/07/07 05:05:43;;;;;;;5.65;4.20;;;;;;;;;;5063042;28;20040;-71
2021/07/07 05:08:09;;;;;;;9.02;4.18;;;;;;;;;;5065012;28;20482;-71
2021/07/07 05:10:36;;;;;;;6.35;4.30;;;;;;;;;;5063528;28;20481;-72
2021/07/07 05:13:04;;;;;;;7.18;4.28;;;;;;;;;;5063045;28;20016;-72
2021/07/07 05:15:30;;;;;;;5.07;4.43;;;;;;;;;;5064629;28;20016;-72
2021/07/07 05:17:56;;;;;;;5.43;3.67;;;;;;;;;;5062896;28;20378;-70
2021/07/07 05:20:23;;;;;;;3.78;3.40;;;;;;;;;;5062643;28;20135;-71
2021/07/07 05:22:49;;;;;;;7.22;3.92;;;;;;;;;;5064243;28;20532;-70
2021/07/07 05:25:15;;;;;;;9.10;4.18;;;;;;;;;;5062422;28;20537;-70
2021/07/07 05:27:41;;;;;;;22.92;5.93;;;;;;;;;;5063001;28;20025;-69
2021/07/07 05:30:08;;;;;;;11.00;5.78;;;;;;;;;;5070110;28;20036;-69
2021/07/07 05:32:34;;;;;;;6.40;5.05;;;;;;;;;;5054001;28;20029;-69
2021/07/07 05:35:00;;;;;;;6.93;5.15;;;;;;;;;;5054349;28;20025;-70
2021/07/07 05:37:26;;;;;;;7.57;3.28;;;;;;;;;;5053840;28;20087;-69
2021/07/07 05:39:52;;;;;;;4.43;3.95;;;;;;;;;;5054284;28;20096;-70
2021/07/07 05:42:20;;;;;;;6.63;5.63;;;;;;;;;;5054177;28;20028;-71
2021/07/07 05:44:46;;;;;;;11.65;7.18;;;;;;;;;;5054479;28;20155;-71
2021/07/07 05:47:12;;;;;;;30.67;5.90;;;;;;;;;;5068122;28;20032;-70
2021/07/07 05:49:38;;;;;;;10.35;6.15;;;;;;;;;;5067012;28;20103;-69
2021/07/07 05:52:05;;;;;;;9.65;5.60;;;;;;;;;;5063554;28;20493;-71
2021/07/07 05:54:31;;;;;;;13.45;4.97;;;;;;;;;;5063854;28;20016;-73
2021/07/07 05:56:57;;;;;;;6.85;4.75;;;;;;;;;;5064377;28;20131;-72
2021/07/07 05:59:24;;;;;;;5.40;4.93;;;;;;;;;;5062406;28;20450;-72
2021/07/07 06:01:50;;;;;;;13.68;4.28;;;;;;;;;;5063914;28;20016;-73
2021/07/07 06:04:16;;;;;;;7.95;4.70;;;;;;;;;;5064072;28;20021;-71
2021/07/07 06:06:42;;;;;;;5.55;5.05;;;;;;;;;;5061357;28;20017;-71
2021/07/07 06:09:08;;;;;;;5.13;4.03;;;;;;;;;;5063450;28;20031;-71
2021/07/07 06:11:34;;;;;;;7.30;4.53;;;;;;;;;;5062317;28;20549;-69
2021/07/07 06:14:00;;;;;;;4.95;4.22;;;;;;;;;;5061483;28;20375;-70
2021/07/07 06:16:26;;;;;;;7.43;4.70;;;;;;;;;;5062867;28;20012;-71
2021/07/07 06:18:52;;;;;;;11.48;5.15;;;;;;;;;;5059972;28;20041;-70
2021/07/07 06:21:18;;;;;;;9.48;4.50;;;;;;;;;;5060961;28;20462;-69
2021/07/07 06:23:44;;;;;;;9.52;4.88;;;;;;;;;;5062425;28;20028;-70
2021/07/07 06:26:10;;;;;;;11.02;5.03;;;;;;;;;;5060156;28;20108;-71
2021/07/07 06:28:37;;;;;;;33.55;6.55;;;;;;;;;;5062678;28;20029;-70
2021/07/07 06:31:03;;;;;;;6.38;4.80;;;;;;;;;;5061203;28;20141;-70
2021/07/07 06:33:29;;;;;;;16.13;6.60;;;;;;;;;;5061796;28;20021;-69
2021/07/07 06:35:55;;;;;;;7.15;5.43;;;;;;;;;;5063582;28;20058;-70
2021/07/07 06:38:21;;;;;;;9.60;5.00;;;;;;;;;;5061138;28;20017;-70
2021/07/07 06:40:47;;;;;;;5.78;4.85;;;;;;;;;;5060468;28;20029;-68
2021/07/07 06:43:14;;;;;;;6.35;4.82;;;;;;;;;;5060646;28;20066;-69
2021/07/07 06:45:40;;;;;;;8.23;5.32;;;;;;;;;;5062536;28;20474;-69
2021/07/07 06:48:07;;;;;;;13.48;5.55;;;;;;;;;;5061616;28;20032;-70
2021/07/07 06:50:33;;;;;;;6.10;4.80;;;;;;;;;;5061652;28;20036;-70
2021/07/07 06:52:59;;;;;;;7.25;4.90;;;;;;;;;;5069546;28;20537;-71
2021/07/07 06:55:25;;;;;;;10.88;5.50;;;;;;;;;;5073113;28;20024;-71
2021/07/07 06:57:51;;;;;;;15.38;5.78;;;;;;;;;;5064275;28;20012;-70
2021/07/07 07:00:18;;;;;;;8.73;5.57;;;;;;;;;;5062321;28;20040;-70
2021/07/07 07:02:44;;;;;;;18.67;5.75;;;;;;;;;;5059506;28;20143;-71
2021/07/07 07:05:10;;;;;;;7.40;5.18;;;;;;;;;;5061307;28;20016;-71
2021/07/07 07:07:36;;;;;;;5.50;5.00;;;;;;;;;;5062557;28;20032;-70
2021/07/07 07:10:03;;;;;;;13.65;5.85;;;;;;;;;;5061037;28;20021;-71
2021/07/07 07:12:29;;;;;;;5.00;4.60;;;;;;;;;;5061678;28;20369;-71
2021/07/07 07:14:56;;;;;;;5.13;4.63;;;;;;;;;;5062710;28;20024;-72
2021/07/07 07:17:22;;;;;;;6.97;4.82;;;;;;;;;;5060790;28;20059;-71
2021/07/07 07:19:48;;;;;;;13.93;4.47;;;;;;;;;;5062027;28;20032;-71
2021/07/07 07:22:15;;;;;;;4.60;4.00;;;;;;;;;;5064818;28;20772;-71
2021/07/07 07:24:41;;;;;;;5.72;5.20;;;;;;;;;;5062951;28;20017;-71
2021/07/07 07:27:07;;;;;;;5.35;4.20;;;;;;;;;;5059878;28;20025;-70
2021/07/07 07:29:33;;;;;;;11.48;4.15;;;;;;;;;;5062787;28;20037;-70
2021/07/07 07:31:59;;;;;;;4.32;4.00;;;;;;;;;;5071502;28;20020;-70
2021/07/07 07:34:25;;;;;;;8.25;4.32;;;;;;;;;;5072679;28;20378;-70
2021/07/07 07:36:58;;;;;;;5.88;4.70;;;;;;;;;;5075353;28;20029;-69
2021/07/07 07:39:26;;;;;;;7.72;5.07;;;;;;;;;;5076737;28;20064;-70
2021/07/07 07:41:52;;;;;;;8.43;4.68;;;;;;;;;;5075860;28;20501;-69
2021/07/07 07:44:18;;;;;;;5.72;4.97;;;;;;;;;;5076717;28;20020;-71
2021/07/07 07:46:44;;;;;;;9.63;4.50;;;;;;;;;;5076021;28;20180;-72
2021/07/07 07:49:13;;;;;;;9.95;5.13;;;;;;;;;;5064401;28;20056;-71
2021/07/07 07:51:39;;;;;;;13.85;5.03;;;;;;;;;;5064994;28;20048;-72
2021/07/07 07:54:05;;;;;;;9.70;5.70;;;;;;;;;;5066130;28;20025;-71
2021/07/07 07:56:31;;;;;;;12.43;5.53;;;;;;;;;;5064135;28;20028;-70
2021/07/07 07:58:57;;;;;;;10.10;5.32;;;;;;;;;;5065536;28;20498;-71
2021/07/07 08:01:24;;;;;;;13.85;5.43;;;;;;;;;;5063993;28;20065;-71
2021/07/07 08:03:51;;;;;;;6.80;4.50;;;;;;;;;;5067137;28;20109;-70
2021/07/07 08:06:17;;;;;;;8.82;5.40;;;;;;;;;;5061674;28;20035;-70
2021/07/07 08:08:43;;;;;;;7.00;5.15;;;;;;;;;;5064666;28;20060;-70
2021/07/07 08:11:10;;;;;;;9.02;5.03;;;;;;;;;;5063737;28;20390;-70
2021/07/07 08:13:38;;;;;;;5.38;4.88;;;;;;;;;;5063184;28;20055;-69
2021/07/07 08:16:04;;;;;;;6.45;5.32;;;;;;;;;;5063893;28;20043;-68
2021/07/07 08:18:30;;;;;;;6.95;5.03;;;;;;;;;;5065355;28;20234;-69
2021/07/07 08:20:57;;;;;;;12.48;5.70;;;;;;;;;;5064760;28;20044;-70
2021/07/07 08:23:23;;;;;;;9.48;6.05;;;;;;;;;;5063613;28;20382;-69
2021/07/07 08:25:52;;;;;;;6.20;4.90;;;;;;;;;;5063755;28;20532;-68
2021/07/07 08:28:18;;;;;;;10.32;5.40;;;;;;;;;;5064679;28;20028;-69
2021/07/07 08:30:44;;;;;;;7.68;4.68;;;;;;;;;;5063023;28;20036;-70
2021/07/07 08:33:12;;;;;;;15.20;6.00;;;;;;;;;;5067303;28;20436;-69
2021/07/07 08:35:38;;;;;;;10.20;5.82;;;;;;;;;;5063872;28;20108;-69
2021/07/07 08:38:04;;;;;;;8.52;5.65;;;;;;;;;;5063266;28;20020;-69
2021/07/07 08:40:30;;;;;;;14.55;5.70;;;;;;;;;;5064563;28;20082;-68
2021/07/07 08:42:57;;;;;;;10.93;6.18;;;;;;;;;;5063210;28;20021;-68
2021/07/07 08:45:23;;;;;;;10.40;6.57;;;;;;;;;;5063846;28;20024;-67
2021/07/07 08:47:49;;;;;;;11.20;6.53;;;;;;;;;;5064422;28;20035;-68
2021/07/07 08:50:16;;;;;;;6.75;6.15;;;;;;;;;;5063714;28;20033;-68
2021/07/07 08:52:42;;;;;;;31.75;6.93;;;;;;;;;;5063966;28;20482;-68
2021/07/07 08:55:09;;;;;;;13.55;6.72;;;;;;;;;;5064770;28;20026;-69
2021/07/07 08:57:42;;;;;;;10.35;7.13;;;;;;;;;;5062999;28;20053;-69
2021/07/07 09:00:09;;;;;;;8.07;7.30;;;;;;;;;;5062232;28;20040;-69
2021/07/07 09:02:45;;;;;;;10.07;7.03;;;;;;;;;;5063773;28;20320;-69
2021/07/07 09:05:11;;;;;;;8.40;6.65;;;;;;;;;;5064380;28;20048;-69
2021/07/07 09:07:40;;;;;;;10.43;7.70;;;;;;;;;;5063117;28;20075;-69
2021/07/07 09:10:06;;;;;;;11.20;6.65;;;;;;;;;;5062147;28;20058;-68
2021/07/07 09:12:34;;;;;;;33.88;7.57;;;;;;;;;;5063133;28;20078;-68
2021/07/07 09:15:03;;;;;;;8.70;7.40;;;;;;;;;;5063331;28;20036;-70
2021/07/07 09:17:29;;;;;;;11.38;7.18;;;;;;;;;;5061554;28;20017;-70
2021/07/07 09:19:55;;;;;;;10.50;7.70;;;;;;;;;;5063453;28;20449;-70
2021/07/07 09:22:23;;;;;;;11.30;8.75;;;;;;;;;;5062883;28;20025;-68
2021/07/07 09:24:52;;;;;;;13.10;7.53;;;;;;;;;;5054400;28;20029;-69
2021/07/07 09:27:18;;;;;;;7.43;6.53;;;;;;;;;;5060720;28;20048;-68
2021/07/07 09:29:46;;;;;;;14.55;7.75;;;;;;;;;;5062290;28;20485;-68
2021/07/07 09:32:15;;;;;;;9.63;7.47;;;;;;;;;;5061726;28;20028;-68
2021/07/07 09:34:41;;;;;;;10.57;7.18;;;;;;;;;;5056103;28;20025;-69
2021/07/07 09:37:08;;;;;;;8.85;7.93;;;;;;;;;;5053665;28;20059;-68
2021/07/07 09:39:34;;;;;;;10.88;8.18;;;;;;;;;;5053694;28;20037;-70
2021/07/07 09:42:00;;;;;;;15.45;7.63;;;;;;;;;;5058343;28;20025;-69
2021/07/07 09:44:31;;;;;;;12.73;6.75;;;;;;;;;;5053823;28;20044;-68
2021/07/07 09:46:57;;;;;;;15.75;6.63;;;;;;;;;;5062993;28;20028;-68
2021/07/07 09:49:24;;;;;;;13.32;7.18;;;;;;;;;;5061408;28;20543;-70
2021/07/07 09:51:50;;;;;;;16.98;6.28;;;;;;;;;;5062790;28;20049;-70
2021/07/07 09:54:16;;;;;;;6.78;6.18;;;;;;;;;;5063351;28;20352;-69
2021/07/07 09:56:42;;;;;;;8.98;8.07;;;;;;;;;;5062236;28;20059;-70
2021/07/07 09:59:09;;;;;;;8.18;7.53;;;;;;;;;;5061340;28;20032;-70
2021/07/07 10:01:36;;;;;;;12.82;10.20;;;;;;;;;;5062097;28;20032;-69
2021/07/07 10:04:02;;;;;;;21.98;9.70;;;;;;;;;;5063191;28;20013;-68
2021/07/07 10:06:28;;;;;;;11.32;10.30;;;;;;;;;;5060865;28;20490;-69
2021/07/07 10:08:54;;;;;;;11.68;9.32;;;;;;;;;;5062633;28;20047;-68
2021/07/07 10:11:20;;;;;;;8.07;7.28;;;;;;;;;;5060414;28;20120;-69
2021/07/07 10:13:46;;;;;;;9.75;8.73;;;;;;;;;;5063478;28;20054;-70
2021/07/07 10:16:16;;;;;;;14.43;11.02;;;;;;;;;;5062261;28;20028;-70
2021/07/07 10:18:42;;;;;;;13.38;11.45;;;;;;;;;;5064638;28;20027;-72
2021/07/07 10:21:09;;;;;;;9.75;8.75;;;;;;;;;;5055672;28;20029;-69
2021/07/07 10:23:38;;;;;;;17.35;15.75;;;;;;;;;;5053325;28;20036;-69
2021/07/07 10:26:04;;;;;;;20.98;18.88;;;;;;;;;;5053105;28;20083;-69
2021/07/07 10:28:30;;;;;;;23.98;21.50;;;;;;;;;;5053424;28;20021;-69
2021/07/07 10:30:58;;;;;;;28.70;20.60;;;;;;;;;;5053559;28;20078;-69
2021/07/07 10:33:25;;;;;;;24.90;22.33;;;;;;;;;;5053025;28;20035;-70
2021/07/07 10:35:51;;;;;;;29.55;21.83;;;;;;;;;;5053130;28;20025;-70
2021/07/07 10:38:17;;;;;;;33.00;26.27;;;;;;;;;;5053569;28;20040;-68
2021/07/07 10:40:51;;;;;;;29.65;24.58;;;;;;;;;;5053090;28;20043;-67
2021/07/07 10:43:25;;;;;;;29.00;22.70;;;;;;;;;;5052935;28;20113;-68
2021/07/07 10:45:51;;;;;;;42.05;35.13;;;;;;;;;;5053478;28;20060;-67
2021/07/07 10:48:27;;;;;;;42.25;37.55;;;;;;;;;;5052629;28;20021;-69
2021/07/07 10:50:54;;;;;;;42.17;35.05;;;;;;;;;;5053409;28;20471;-68
2021/07/07 10:53:22;;;;;;;56.38;48.83;;;;;;;;;;5052577;28;20478;-69
2021/07/07 10:55:48;;;;;;;76.63;68.70;;;;;;;;;;5052911;28;20102;-69
2021/07/07 10:58:34;;;;;;;78.53;70.30;;;;;;;;;;5052920;28;20024;-69
2021/07/07 11:01:00;;;;;;;84.10;75.28;;;;;;;;;;5038229;28;20033;-68
2021/07/07 11:03:31;;;;;;;76.47;68.07;;;;;;;;;;5052860;28;20451;-69
2021/07/07 11:05:58;;;;;;;70.22;62.78;;;;;;;;;;5053470;28;20459;-69
2021/07/07 11:08:26;;;;;;;68.43;61.50;;;;;;;;;;5055314;28;20021;-69
2021/07/07 11:10:56;;;;;;;76.72;61.10;;;;;;;;;;5064238;28;20060;-68
2021/07/07 11:13:22;;;;;;;64.32;57.65;;;;;;;;;;5065878;28;20017;-68
2021/07/07 11:15:48;;;;;;;62.83;54.47;;;;;;;;;;5064698;28;20498;-68
2021/07/07 11:18:18;;;;;;;57.08;47.90;;;;;;;;;;5066300;28;20039;-69
2021/07/07 11:20:44;;;;;;;54.30;46.65;;;;;;;;;;5065620;28;20032;-68
2021/07/07 11:23:11;;;;;;;47.50;42.78;;;;;;;;;;5063902;28;20067;-68
2021/07/07 11:25:39;;;;;;;44.80;40.05;;;;;;;;;;5065561;28;20457;-70
2021/07/07 11:28:05;;;;;;;41.63;37.38;;;;;;;;;;5065042;28;20060;-70
2021/07/07 11:30:32;;;;;;;41.42;36.90;;;;;;;;;;5063774;28;20049;-69
2021/07/07 11:33:02;;;;;;;41.35;37.05;;;;;;;;;;5067104;28;20033;-69
2021/07/07 11:35:30;;;;;;;36.75;33.05;;;;;;;;;;5064160;28;20020;-69
2021/07/07 11:37:57;;;;;;;51.80;34.80;;;;;;;;;;5064365;28;20560;-70
2021/07/07 11:40:23;;;;;;;39.63;33.97;;;;;;;;;;5064571;28;20153;-70
2021/07/07 11:43:10;;;;;;;36.40;30.63;;;;;;;;;;5065728;28;20045;-69
2021/07/07 11:45:38;;;;;;;37.70;33.63;;;;;;;;;;5050518;28;20033;-69
2021/07/07 11:50:57;;;;;;;20.75;14.73;;;;;;;;;;5050071;28;20387;-70
2021/07/07 11:53:23;;;;;;;7.20;6.22;;;;;;;;;;5063423;28;20053;-70
2021/07/07 11:55:56;;;;;;;13.50;5.30;;;;;;;;;;5064340;28;20017;-69
2021/07/07 11:58:23;;;;;;;7.28;4.90;;;;;;;;;;5063806;28;20017;-69
2021/07/07 12:00:49;;;;;;;5.78;5.28;;;;;;;;;;5065085;28;20136;-70
2021/07/07 12:03:17;;;;;;;6.40;5.75;;;;;;;;;;5063758;28;20029;-71
2021/07/07 12:05:51;;;;;;;5.97;5.47;;;;;;;;;;5063499;28;20052;-71
2021/07/07 12:08:20;;;;;;;6.13;5.63;;;;;;;;;;5064566;28;20017;-69
2021/07/07 12:10:46;;;;;;;10.40;6.18;;;;;;;;;;5062825;28;20021;-69
2021/07/07 12:13:28;;;;;;;14.93;5.70;;;;;;;;;;5066233;28;20480;-70
2021/07/07 12:16:14;;;;;;;6.68;6.07;;;;;;;;;;5063369;28;20068;-70
2021/07/07 12:18:40;;;;;;;8.75;6.25;;;;;;;;;;5049621;28;20064;-69
2021/07/07 12:21:06;;;;;;;6.60;5.97;;;;;;;;;;5065317;28;20040;-70
2021/07/07 12:23:43;;;;;;;7.57;6.18;;;;;;;;;;5062455;28;20028;-70
2021/07/07 12:26:09;;;;;;;7.85;6.13;;;;;;;;;;5057435;28;20029;-69
2021/07/07 12:28:35;;;;;;;7.18;6.47;;;;;;;;;;5055105;28;20021;-68
2021/07/07 12:31:01;;;;;;;9.90;8.90;;;;;;;;;;5053507;28;20025;-69
2021/07/07 12:33:30;;;;;;;10.90;6.82;;;;;;;;;;5053009;28;20119;-69
2021/07/07 12:35:56;;;;;;;10.00;8.20;;;;;;;;;;5054978;28;20081;-70
2021/07/07 12:38:22;;;;;;;24.15;7.90;;;;;;;;;;5058799;28;20390;-69
2021/07/07 12:40:53;;;;;;;15.10;9.50;;;;;;;;;;5061804;28;20588;-70
2021/07/07 12:43:26;;;;;;;12.80;8.95;;;;;;;;;;5063103;28;20024;-70
2021/07/07 12:46:01;;;;;;;18.13;9.63;;;;;;;;;;5063369;28;20030;-68
2021/07/07 12:48:27;;;;;;;24.13;8.82;;;;;;;;;;5074724;28;20032;-70
2021/07/07 12:50:54;;;;;;;12.88;8.50;;;;;;;;;;5073341;28;20044;-70
2021/07/07 12:53:35;;;;;;;16.05;10.32;;;;;;;;;;5073699;28;20549;-70
2021/07/07 12:56:08;;;;;;;11.43;10.13;;;;;;;;;;5075980;28;20065;-70
2021/07/07 12:58:34;;;;;;;12.85;11.52;;;;;;;;;;5075213;28;20025;-70
2021/07/07 13:01:00;;;;;;;14.23;8.82;;;;;;;;;;5074968;28;20036;-69
2021/07/07 13:03:34;;;;;;;17.73;10.82;;;;;;;;;;5074765;28;20025;-70
2021/07/07 13:06:03;;;;;;;10.38;9.45;;;;;;;;;;5074786;28;20374;-69
2021/07/07 13:08:33;;;;;;;10.43;8.88;;;;;;;;;;5074604;28;20433;-69
2021/07/07 13:10:59;;;;;;;9.52;8.63;;;;;;;;;;5074741;28;20027;-69
2021/07/07 13:13:29;;;;;;;11.70;9.77;;;;;;;;;;5074069;28;20391;-70
2021/07/07 13:16:15;;;;;;;9.80;8.70;;;;;;;;;;5072134;28;20036;-70
2021/07/07 13:18:59;;;;;;;9.70;8.70;;;;;;;;;;5058474;28;20052;-70
2021/07/07 13:21:30;;;;;;;11.68;8.38;;;;;;;;;;5072378;28;20029;-70
2021/07/07 13:23:56;;;;;;;15.75;10.65;;;;;;;;;;5072858;28;20032;-69
2021/07/07 13:26:24;;;;;;;13.90;12.52;;;;;;;;;;5074434;28;20027;-69
2021/07/07 13:28:50;;;;;;;12.75;11.55;;;;;;;;;;5074331;28;20029;-70
2021/07/07 13:31:24;;;;;;;12.27;11.18;;;;;;;;;;5073427;28;20032;-70
2021/07/07 13:33:50;;;;;;;11.98;10.32;;;;;;;;;;5074227;28;20470;-69
2021/07/07 13:36:16;;;;;;;12.52;11.15;;;;;;;;;;5073973;28;20024;-70
2021/07/07 13:38:43;;;;;;;12.73;9.98;;;;;;;;;;5073836;28;20025;-70
2021/07/07 13:41:09;;;;;;;14.38;9.63;;;;;;;;;;5073714;28;20420;-70
2021/07/07 13:43:36;;;;;;;8.88;8.07;;;;;;;;;;5073681;28;20066;-71
2021/07/07 13:46:02;;;;;;;9.25;8.40;;;;;;;;;;5073600;28;20029;-70
2021/07/07 13:48:28;;;;;;;9.30;8.40;;;;;;;;;;5073682;28;20029;-70
2021/07/07 13:50:55;;;;;;;12.27;9.60;;;;;;;;;;5073752;28;20024;-69
2021/07/07 13:53:21;;;;;;;10.02;8.85;;;;;;;;;;5073996;28;20048;-70
2021/07/07 13:55:47;;;;;;;9.63;8.70;;;;;;;;;;5073517;28;20020;-69
2021/07/07 13:58:13;;;;;;;11.32;10.23;;;;;;;;;;5073753;28;20103;-69
2021/07/07 14:00:39;;;;;;;16.73;9.10;;;;;;;;;;5073315;28;20031;-69
2021/07/07 14:03:05;;;;;;;10.15;9.15;;;;;;;;;;5073959;28;20078;-69
2021/07/07 14:05:32;;;;;;;10.73;9.43;;;;;;;;;;5073466;28;20033;-69
2021/07/07 14:07:58;;;;;;;9.07;8.27;;;;;;;;;;5073379;28;20394;-69
2021/07/07 14:10:24;;;;;;;9.63;8.20;;;;;;;;;;5073644;28;20029;-69
2021/07/07 14:12:50;;;;;;;11.90;8.95;;;;;;;;;;5073805;28;20032;-69
2021/07/07 14:15:16;;;;;;;13.90;12.25;;;;;;;;;;5072962;28;20032;-70
2021/07/07 14:17:42;;;;;;;11.77;10.45;;;;;;;;;;5073912;28;20032;-70
2021/07/07 14:20:08;;;;;;;12.30;8.63;;;;;;;;;;5073850;28;20131;-69
2021/07/07 14:22:34;;;;;;;12.55;9.18;;;;;;;;;;5073182;28;20056;-70
2021/07/07 14:25:01;;;;;;;14.43;9.85;;;;;;;;;;5073257;28;20377;-69
2021/07/07 14:27:27;;;;;;;14.77;10.07;;;;;;;;;;5073115;28;20031;-69
2021/07/07 14:29:54;;;;;;;13.15;10.32;;;;;;;;;;5072805;28;20024;-70
2021/07/07 14:32:20;;;;;;;11.30;9.38;;;;;;;;;;5073755;28;20021;-69
2021/07/07 14:34:46;;;;;;;11.43;10.18;;;;;;;;;;5073530;28;20039;-69
2021/07/07 14:37:12;;;;;;;15.95;10.60;;;;;;;;;;5073227;28;20032;-69